createdAt,value
2024-03-03T00:01:44.534Z,20.27
2024-03-03T00:04:12.157Z,21.20
2024-03-03T00:06:39.673Z,23.35
2024-03-03T00:09:07.387Z,23.45
2024-03-03T00:11:35.363Z,25.23
2024-03-03T00:14:03.466Z,19.90
2024-03-03T00:16:32.727Z,22.27
2024-03-03T00:19:00.254Z,23.17
2024-03-03T00:21:28.355Z,23.73
2024-03-03T00:23:55.773Z,21.52
2024-03-03T00:26:23.246Z,21.40
2024-03-03T00:28:50.774Z,21.77
2024-03-03T00:31:19.976Z,21.77
2024-03-03T00:33:48.944Z,22.95
2024-03-03T00:36:16.414Z,21.73
2024-03-03T00:38:43.905Z,24.70
2024-03-03T00:41:11.432Z,23.63
2024-03-03T00:43:38.964Z,27.45
2024-03-03T00:46:07.174Z,24.27
2024-03-03T00:48:34.822Z,20.48
2024-03-03T00:51:03.851Z,24.42
2024-03-03T00:53:31.251Z,25.63
2024-03-03T00:55:58.745Z,25.25
2024-03-03T00:58:26.342Z,24.92
2024-03-03T01:00:53.953Z,25.55
2024-03-03T01:03:21.546Z,25.25
2024-03-03T01:05:49.744Z,27.17
2024-03-03T01:08:18.607Z,23.63
2024-03-03T01:10:46.260Z,26.65
2024-03-03T01:13:13.898Z,23.77
2024-03-03T01:15:41.665Z,25.30
2024-03-03T01:18:09.204Z,25.02
2024-03-03T01:20:36.616Z,26.33
2024-03-03T01:23:04.082Z,28.70
2024-03-03T01:25:32.896Z,26.33
2024-03-03T01:28:00.363Z,27.30
2024-03-03T01:30:27.861Z,25.98
2024-03-03T01:32:55.533Z,28.30
2024-03-03T01:35:23.065Z,28.17
2024-03-03T01:37:50.498Z,24.92
2024-03-03T01:40:18.404Z,29.92
2024-03-03T01:42:47.347Z,28.00
2024-03-03T01:45:18.032Z,28.73
2024-03-03T01:47:45.548Z,31.75
2024-03-03T01:50:12.989Z,27.08
2024-03-03T01:52:40.404Z,32.28
2024-03-03T01:55:08.409Z,28.85
2024-03-03T01:57:36.193Z,26.90
2024-03-03T02:00:07.541Z,32.70
2024-03-03T02:02:40.483Z,28.25
2024-03-03T02:05:09.192Z,28.20
2024-03-03T02:07:36.671Z,30.83
2024-03-03T02:10:08.548Z,29.00
2024-03-03T02:12:36.209Z,27.35
2024-03-03T02:15:07.514Z,27.75
2024-03-03T02:17:35.064Z,28.63
2024-03-03T02:20:02.555Z,29.25
2024-03-03T02:22:31.365Z,29.10
2024-03-03T02:24:58.891Z,26.40
2024-03-03T02:27:26.345Z,29.33
2024-03-03T02:29:53.787Z,25.58
2024-03-03T02:32:21.302Z,32.53
2024-03-03T02:34:48.926Z,26.67
2024-03-03T02:37:16.461Z,30.10
2024-03-03T02:39:45.383Z,28.88
2024-03-03T02:42:12.865Z,26.52
2024-03-03T02:44:40.444Z,28.95
2024-03-03T02:47:08.016Z,28.08
2024-03-03T02:49:35.478Z,27.52
2024-03-03T02:52:03.266Z,30.55
2024-03-03T02:54:30.950Z,31.67
2024-03-03T02:56:59.836Z,28.48
2024-03-03T02:59:27.332Z,29.15
2024-03-03T03:01:55.032Z,30.10
2024-03-03T03:04:22.720Z,30.17
2024-03-03T03:06:50.189Z,30.63
2024-03-03T03:09:17.642Z,29.38
2024-03-03T03:11:45.097Z,27.60
2024-03-03T03:14:14.492Z,29.85
2024-03-03T03:16:42.936Z,27.63
2024-03-03T03:19:10.998Z,29.88
2024-03-03T03:21:38.593Z,28.85
2024-03-03T03:24:06.166Z,25.42
2024-03-03T03:26:34.185Z,28.80
2024-03-03T03:29:03.113Z,27.85
2024-03-03T03:31:32.073Z,29.52
2024-03-03T03:33:59.560Z,29.38
2024-03-03T03:36:27.451Z,26.83
2024-03-03T03:38:54.924Z,32.25
2024-03-03T03:41:22.374Z,30.02
2024-03-03T03:43:49.868Z,29.73
2024-03-03T03:46:17.424Z,28.02
2024-03-03T03:48:46.214Z,30.52
2024-03-03T03:51:13.630Z,25.80
2024-03-03T03:53:41.134Z,30.25
2024-03-03T03:56:08.755Z,29.45
2024-03-03T03:58:36.329Z,27.67
2024-03-03T04:01:04.920Z,28.77
2024-03-03T04:03:32.665Z,35.70
2024-03-03T04:06:01.879Z,31.40
2024-03-03T04:08:29.503Z,32.80
2024-03-03T04:10:58.778Z,29.40
2024-03-03T04:13:26.261Z,29.20
2024-03-03T04:15:53.769Z,29.90
2024-03-03T04:18:24.846Z,30.27
2024-03-03T04:20:55.759Z,30.67
2024-03-03T04:23:24.582Z,30.30
2024-03-03T04:25:52.046Z,30.75
2024-03-03T04:28:19.572Z,32.08
2024-03-03T04:30:47.153Z,33.08
2024-03-03T04:33:14.650Z,30.80
2024-03-03T04:35:43.751Z,30.55
2024-03-03T04:38:11.319Z,29.70
2024-03-03T04:40:40.143Z,32.20
2024-03-03T04:43:08.265Z,31.00
2024-03-03T04:45:35.727Z,30.90
2024-03-03T04:48:03.215Z,30.27
2024-03-03T04:50:30.684Z,31.55
2024-03-03T04:52:58.124Z,32.00
2024-03-03T04:55:25.818Z,30.48
2024-03-03T04:57:54.654Z,31.45
2024-03-03T05:00:22.262Z,31.73
2024-03-03T05:02:49.855Z,31.05
2024-03-03T05:05:17.357Z,34.03
2024-03-03T05:07:44.803Z,32.28
2024-03-03T05:10:12.764Z,33.38
2024-03-03T05:12:40.310Z,33.70
2024-03-03T05:15:09.765Z,31.17
2024-03-03T05:17:37.332Z,32.35
2024-03-03T05:20:08.471Z,36.40
2024-03-03T05:22:36.157Z,34.88
2024-03-03T05:25:04.688Z,28.55
2024-03-03T05:27:32.174Z,29.75
2024-03-03T05:30:02.561Z,33.45
2024-03-03T05:32:34.137Z,32.13
2024-03-03T05:35:01.588Z,31.88
2024-03-03T05:37:29.061Z,31.25
2024-03-03T05:39:56.562Z,35.33
2024-03-03T05:42:23.983Z,35.38
2024-03-03T05:44:51.519Z,35.55
2024-03-03T05:47:19.029Z,36.13
2024-03-03T05:49:48.164Z,33.65
2024-03-03T05:52:15.775Z,31.27
2024-03-03T05:54:43.293Z,34.65
2024-03-03T05:57:12.349Z,34.85
2024-03-03T05:59:39.828Z,31.13
2024-03-03T06:02:07.325Z,33.45
2024-03-03T06:04:36.658Z,33.47
2024-03-03T06:07:06.169Z,32.25
2024-03-03T06:09:33.717Z,31.23
2024-03-03T06:12:01.464Z,33.53
2024-03-03T06:14:28.949Z,36.55
2024-03-03T06:16:56.382Z,33.25
2024-03-03T06:19:23.984Z,36.83
2024-03-03T06:21:52.253Z,35.22
2024-03-03T06:24:21.643Z,36.28
2024-03-03T06:26:49.152Z,35.45
2024-03-03T06:29:16.574Z,34.70
2024-03-03T06:31:44.970Z,32.45
2024-03-03T06:34:12.508Z,32.00
2024-03-03T06:36:40.509Z,33.90
2024-03-03T06:39:11.195Z,31.15
2024-03-03T06:41:39.961Z,35.13
2024-03-03T06:44:07.348Z,33.55
2024-03-03T06:46:34.951Z,33.22
2024-03-03T06:49:02.448Z,31.88
2024-03-03T06:51:29.913Z,32.55
2024-03-03T06:53:57.359Z,34.38
2024-03-03T06:56:24.781Z,31.98
2024-03-03T06:58:53.556Z,34.78
2024-03-03T07:01:21.099Z,37.42
2024-03-03T07:04:14.931Z,39.65
2024-03-03T07:06:42.913Z,36.78
2024-03-03T07:09:10.755Z,36.38
2024-03-03T07:11:38.393Z,37.63
2024-03-03T07:14:07.192Z,33.38
2024-03-03T07:16:34.703Z,35.80
2024-03-03T07:19:02.120Z,38.15
2024-03-03T07:21:30.150Z,40.67
2024-03-03T07:23:57.693Z,40.08
2024-03-03T07:26:25.260Z,37.13
2024-03-03T07:28:53.279Z,38.83
2024-03-03T07:31:22.256Z,36.78
2024-03-03T07:33:52.971Z,36.03
2024-03-03T07:36:38.490Z,38.30
2024-03-03T07:39:06.988Z,38.15
2024-03-03T07:41:34.353Z,39.42
2024-03-03T07:44:01.791Z,38.30
2024-03-03T07:46:31.301Z,37.80
2024-03-03T07:48:58.909Z,38.25
2024-03-03T07:51:26.406Z,37.15
2024-03-03T07:53:53.880Z,42.15
2024-03-03T07:56:22.353Z,40.17
2024-03-03T07:58:50.337Z,43.65
2024-03-03T08:01:17.815Z,45.00
2024-03-03T08:03:46.652Z,39.67
2024-03-03T08:06:14.098Z,40.90
2024-03-03T08:08:41.509Z,40.22
2024-03-03T08:11:08.894Z,38.58
2024-03-03T08:13:36.292Z,38.75
2024-03-03T08:16:04.105Z,39.42
2024-03-03T08:18:31.582Z,38.60
2024-03-03T08:21:00.940Z,45.00
2024-03-03T08:23:28.477Z,42.85
2024-03-03T08:25:56.097Z,49.97
2024-03-03T08:28:23.705Z,40.53
2024-03-03T08:30:51.450Z,42.63
2024-03-03T08:33:18.980Z,41.30
2024-03-03T08:35:46.368Z,41.10
2024-03-03T08:38:15.085Z,44.50
2024-03-03T08:40:42.482Z,44.70
2024-03-03T08:43:09.937Z,41.53
2024-03-03T08:45:37.451Z,42.60
2024-03-03T08:48:05.107Z,40.08
2024-03-03T08:50:32.536Z,43.83
2024-03-03T08:53:00.001Z,40.35
2024-03-03T08:55:28.965Z,43.20
2024-03-03T08:57:56.573Z,48.55
2024-03-03T09:00:24.149Z,40.88
2024-03-03T09:02:51.548Z,40.90
2024-03-03T09:05:19.208Z,42.47
2024-03-03T09:07:46.704Z,42.63
2024-03-03T09:10:14.206Z,44.33
2024-03-03T09:12:42.989Z,42.45
2024-03-03T09:15:11.098Z,43.78
2024-03-03T09:17:39.168Z,43.95
2024-03-03T09:20:07.510Z,44.03
2024-03-03T09:22:37.333Z,42.35
2024-03-03T09:25:05.610Z,41.00
2024-03-03T09:27:33.015Z,37.97
2024-03-03T09:30:01.851Z,41.60
2024-03-03T09:32:29.287Z,42.40
2024-03-03T09:34:56.846Z,40.80
2024-03-03T09:37:24.419Z,40.03
2024-03-03T09:39:51.965Z,39.53
2024-03-03T09:42:19.435Z,39.60
2024-03-03T09:44:47.875Z,47.38
2024-03-03T09:47:17.386Z,43.67
2024-03-03T09:49:44.869Z,40.53
2024-03-03T09:52:14.032Z,40.10
2024-03-03T09:54:42.369Z,43.72
2024-03-03T09:57:13.108Z,39.60
2024-03-03T09:59:41.312Z,39.53
2024-03-03T10:02:10.313Z,39.30
2024-03-03T10:04:41.249Z,36.13
2024-03-03T10:07:09.704Z,39.42
2024-03-03T10:09:38.269Z,36.85
2024-03-03T10:12:07.206Z,34.10
2024-03-03T10:14:35.778Z,38.67
2024-03-03T10:17:04.301Z,36.72
2024-03-03T10:19:31.922Z,36.85
2024-03-03T10:22:00.749Z,37.20
2024-03-03T10:24:29.454Z,36.30
2024-03-03T10:26:57.624Z,34.28
2024-03-03T10:29:26.603Z,34.88
2024-03-03T10:31:54.312Z,33.53
2024-03-03T10:34:22.139Z,30.25
2024-03-03T10:36:49.709Z,34.70
2024-03-03T10:39:18.590Z,39.67
2024-03-03T10:41:46.011Z,33.00
2024-03-03T10:44:13.732Z,38.22
2024-03-03T10:46:41.165Z,35.50
2024-03-03T10:49:13.301Z,30.65
2024-03-03T10:51:40.758Z,27.63
2024-03-03T10:54:10.809Z,27.40
2024-03-03T10:56:40.483Z,29.92
2024-03-03T10:59:08.868Z,30.27
2024-03-03T11:01:37.884Z,35.03
2024-03-03T11:04:06.844Z,31.25
2024-03-03T11:06:34.632Z,23.75
2024-03-03T11:09:02.333Z,29.38
2024-03-03T11:11:32.780Z,26.42
2024-03-03T11:14:11.879Z,28.25
2024-03-03T11:16:40.235Z,25.75
2024-03-03T11:19:11.612Z,24.70
2024-03-03T11:21:39.610Z,26.20
2024-03-03T11:24:08.173Z,27.13
2024-03-03T11:26:41.729Z,24.10
2024-03-03T11:29:10.657Z,26.42
2024-03-03T11:31:38.934Z,24.63
2024-03-03T11:34:07.786Z,27.40
2024-03-03T11:36:36.005Z,31.10
2024-03-03T11:39:11.020Z,25.23
2024-03-03T11:41:40.424Z,23.40
2024-03-03T11:44:28.118Z,23.35
2024-03-03T11:46:59.301Z,23.83
2024-03-03T11:49:26.806Z,21.95
2024-03-03T11:51:54.339Z,33.45
2024-03-03T11:54:32.066Z,20.23
2024-03-03T11:57:00.615Z,19.92
2024-03-03T11:59:32.428Z,18.65
2024-03-03T12:02:04.777Z,20.48
2024-03-03T12:04:32.931Z,19.63
2024-03-03T12:07:02.389Z,22.38
2024-03-03T12:09:35.477Z,20.15
2024-03-03T12:12:03.618Z,19.58
2024-03-03T12:14:34.181Z,20.65
2024-03-03T12:17:03.214Z,21.67
2024-03-03T12:19:34.433Z,23.35
2024-03-03T12:22:02.731Z,20.52
2024-03-03T12:24:37.224Z,22.48
2024-03-03T12:27:10.324Z,20.08
2024-03-03T12:29:37.854Z,20.77
2024-03-03T12:32:07.136Z,21.38
2024-03-03T12:34:34.806Z,18.83
2024-03-03T12:37:02.342Z,21.95
2024-03-03T12:39:32.008Z,20.67
2024-03-03T12:41:59.678Z,19.08
2024-03-03T12:44:27.384Z,24.58
2024-03-03T12:46:55.245Z,21.13
2024-03-03T12:49:24.244Z,20.42
2024-03-03T12:51:52.465Z,22.10
2024-03-03T12:54:20.009Z,23.88
2024-03-03T12:56:48.078Z,24.67
2024-03-03T12:59:15.949Z,22.90
2024-03-03T13:01:43.615Z,26.55
2024-03-03T13:04:11.636Z,23.05
2024-03-03T13:06:42.104Z,23.65
2024-03-03T13:09:09.861Z,23.00
2024-03-03T13:11:37.730Z,24.58
2024-03-03T13:14:05.596Z,25.30
2024-03-03T13:16:35.459Z,21.30
2024-03-03T13:19:03.033Z,23.52
2024-03-03T13:21:34.234Z,23.88
2024-03-03T13:24:14.926Z,25.35
2024-03-03T13:27:00.339Z,23.55
2024-03-03T13:29:27.940Z,23.13
2024-03-03T13:31:55.384Z,21.80
2024-03-03T13:34:23.000Z,19.02
2024-03-03T13:36:50.593Z,24.08
2024-03-03T13:39:19.382Z,21.10
2024-03-03T13:41:46.764Z,19.13
2024-03-03T13:44:14.727Z,23.42
2024-03-03T13:46:42.181Z,20.67
2024-03-03T13:49:09.662Z,19.52
2024-03-03T13:51:37.061Z,23.30
2024-03-03T13:54:04.844Z,22.33
2024-03-03T13:56:33.612Z,19.77
2024-03-03T13:59:01.016Z,22.13
2024-03-03T14:01:28.479Z,21.27
2024-03-03T14:03:55.943Z,21.15
2024-03-03T14:06:23.344Z,20.92
2024-03-03T14:08:51.252Z,23.65
2024-03-03T14:11:18.986Z,18.70
2024-03-03T14:13:48.017Z,21.50
2024-03-03T14:16:15.519Z,23.50
2024-03-03T14:18:44.480Z,21.63
2024-03-03T14:21:11.966Z,22.92
2024-03-03T14:23:39.517Z,20.52
2024-03-03T14:26:06.919Z,20.27
2024-03-03T14:28:37.391Z,20.40
2024-03-03T14:31:06.218Z,20.15
2024-03-03T14:33:33.749Z,25.33
2024-03-03T14:36:01.268Z,25.70
2024-03-03T14:38:28.660Z,21.48
2024-03-03T14:40:56.079Z,21.27
2024-03-03T14:43:23.833Z,21.85
2024-03-03T14:45:51.586Z,21.73
2024-03-03T14:48:20.513Z,23.65
2024-03-03T14:50:48.033Z,23.83
2024-03-03T14:53:15.546Z,24.10
2024-03-03T14:55:43.915Z,23.70
2024-03-03T14:58:11.471Z,21.75
2024-03-03T15:00:38.870Z,22.02
2024-03-03T15:03:06.891Z,22.88
2024-03-03T15:05:35.605Z,25.05
2024-03-03T15:08:03.099Z,23.65
2024-03-03T15:10:31.402Z,26.65
2024-03-03T15:13:00.820Z,27.73
2024-03-03T15:15:28.215Z,27.85
2024-03-03T15:17:55.725Z,28.92
2024-03-03T15:20:23.517Z,29.80
2024-03-03T15:22:52.212Z,31.10
2024-03-03T15:25:19.803Z,30.75
2024-03-03T15:27:47.390Z,31.60
2024-03-03T15:30:14.903Z,35.53
2024-03-03T15:32:43.153Z,30.40
2024-03-03T15:35:11.312Z,28.27
2024-03-03T15:37:39.026Z,27.90
2024-03-03T15:40:08.843Z,28.23
2024-03-03T15:42:36.334Z,30.73
2024-03-03T15:45:04.272Z,27.27
2024-03-03T15:47:31.897Z,27.52
2024-03-03T15:49:59.290Z,27.00
2024-03-03T15:52:26.889Z,29.98
2024-03-03T15:54:54.313Z,29.60
2024-03-03T15:57:23.184Z,33.65
2024-03-03T15:59:50.532Z,34.28
2024-03-03T16:02:18.441Z,31.73
2024-03-03T16:04:45.980Z,32.88
2024-03-03T16:07:13.577Z,33.63
2024-03-03T16:09:41.161Z,37.08
2024-03-03T16:12:12.201Z,36.15
2024-03-03T16:14:46.699Z,40.30
2024-03-03T16:17:14.723Z,38.78
2024-03-03T16:19:43.287Z,38.80
2024-03-03T16:22:11.214Z,36.35
2024-03-03T16:24:39.101Z,37.85
2024-03-03T16:27:06.932Z,40.15
2024-03-03T16:29:34.511Z,42.92
2024-03-03T16:32:03.948Z,38.42
2024-03-03T16:34:31.709Z,41.50
2024-03-03T16:36:59.569Z,41.28
2024-03-03T16:39:27.137Z,44.00
2024-03-03T16:41:54.732Z,40.85
2024-03-03T16:44:23.690Z,43.45
2024-03-03T16:46:52.668Z,41.13
2024-03-03T16:49:21.617Z,51.33
2024-03-03T16:51:49.520Z,40.42
2024-03-03T16:54:17.180Z,40.08
2024-03-03T16:56:44.923Z,42.30
2024-03-03T16:59:12.751Z,40.33
2024-03-03T17:01:40.661Z,41.65
2024-03-03T17:04:08.253Z,44.60
2024-03-03T17:06:36.432Z,47.58
2024-03-03T17:09:04.106Z,45.92
2024-03-03T17:11:31.704Z,50.80
2024-03-03T17:13:59.232Z,50.47
2024-03-03T17:16:26.693Z,51.00
2024-03-03T17:18:54.481Z,50.50
2024-03-03T17:21:22.190Z,53.85
2024-03-03T17:23:51.015Z,58.42
2024-03-03T17:26:19.052Z,56.63
2024-03-03T17:28:46.537Z,64.72
2024-03-03T17:31:14.067Z,56.58
2024-03-03T17:33:41.542Z,59.70
2024-03-03T17:36:09.191Z,61.97
2024-03-03T17:38:36.656Z,62.60
2024-03-03T17:41:06.575Z,62.63
2024-03-03T17:43:34.481Z,71.03
2024-03-03T17:46:02.152Z,65.38
2024-03-03T17:48:29.906Z,63.92
2024-03-03T17:50:57.801Z,69.30
2024-03-03T17:53:25.418Z,72.10
2024-03-03T17:55:52.940Z,76.57
2024-03-03T17:58:21.836Z,73.57
2024-03-03T18:00:50.188Z,78.35
2024-03-03T18:03:20.358Z,76.10
2024-03-03T18:05:47.945Z,67.93
2024-03-03T18:08:15.607Z,76.72
2024-03-03T18:10:43.585Z,78.47
2024-03-03T18:13:11.602Z,74.75
2024-03-03T18:15:40.708Z,76.32
2024-03-03T18:18:10.942Z,75.20
2024-03-03T18:20:38.448Z,76.78
2024-03-03T18:23:05.983Z,82.50
2024-03-03T18:25:36.468Z,77.05
2024-03-03T18:28:04.186Z,81.00
2024-03-03T18:30:31.799Z,80.55
2024-03-03T18:33:00.586Z,80.55
2024-03-03T18:35:28.468Z,80.93
2024-03-03T18:37:58.912Z,76.88
2024-03-03T18:40:27.061Z,80.05
2024-03-03T18:42:54.828Z,78.95
2024-03-03T18:45:22.433Z,72.65
2024-03-03T18:47:50.152Z,76.90
2024-03-03T18:50:22.069Z,77.55
2024-03-03T18:52:49.589Z,72.18
2024-03-03T18:55:20.410Z,76.85
2024-03-03T18:57:49.233Z,75.55
2024-03-03T19:00:18.865Z,83.28
2024-03-03T19:02:49.021Z,76.82
2024-03-03T19:05:16.568Z,71.65
2024-03-03T19:07:45.669Z,80.05
2024-03-03T19:10:13.455Z,76.38
2024-03-03T19:12:40.973Z,74.20
2024-03-03T19:15:08.957Z,72.43
2024-03-03T19:17:36.508Z,79.53
2024-03-03T19:20:04.639Z,73.43
2024-03-03T19:22:32.276Z,74.85
2024-03-03T19:25:01.379Z,73.90
2024-03-03T19:27:28.920Z,72.78
2024-03-03T19:29:57.010Z,73.65
2024-03-03T19:32:24.482Z,68.32
2024-03-03T19:34:51.998Z,77.60
2024-03-03T19:37:19.726Z,77.03
2024-03-03T19:39:47.158Z,81.00
2024-03-03T19:42:19.808Z,72.88
2024-03-03T19:44:47.854Z,73.05
2024-03-03T19:47:15.345Z,75.05
2024-03-03T19:49:44.792Z,70.80
2024-03-03T19:52:15.303Z,72.90
2024-03-03T19:54:43.091Z,69.60
2024-03-03T19:57:13.683Z,68.85
2024-03-03T19:59:42.805Z,69.20
2024-03-03T20:02:10.340Z,77.93
2024-03-03T20:04:37.881Z,69.38
2024-03-03T20:07:06.509Z,69.38
2024-03-03T20:09:35.390Z,77.68
2024-03-03T20:12:02.987Z,75.65
2024-03-03T20:14:30.483Z,69.15
2024-03-03T20:16:59.337Z,70.53
2024-03-03T20:19:28.076Z,64.18
2024-03-03T20:21:55.562Z,70.65
2024-03-03T20:24:23.133Z,65.93
2024-03-03T20:26:50.583Z,70.53
2024-03-03T20:29:18.139Z,67.93
2024-03-03T20:31:45.616Z,76.47
2024-03-03T20:34:14.461Z,71.55
2024-03-03T20:36:43.617Z,72.10
2024-03-03T20:39:11.432Z,64.43
2024-03-03T20:41:42.127Z,72.15
2024-03-03T20:44:09.723Z,75.63
2024-03-03T20:46:38.725Z,74.15
2024-03-03T20:49:08.047Z,66.75
2024-03-03T20:51:36.916Z,74.80
2024-03-03T20:54:04.514Z,63.28
2024-03-03T20:56:32.931Z,68.13
2024-03-03T20:59:02.381Z,74.55
2024-03-03T21:01:30.944Z,72.47
2024-03-03T21:03:58.654Z,66.82
2024-03-03T21:06:26.193Z,74.15
2024-03-03T21:08:55.030Z,69.03
2024-03-03T21:11:22.561Z,66.97
2024-03-03T21:13:53.015Z,68.22
2024-03-03T21:16:26.026Z,66.35
2024-03-03T21:18:57.925Z,71.32
2024-03-03T21:21:35.014Z,66.25
2024-03-03T21:24:04.910Z,65.57
2024-03-03T21:26:34.390Z,67.50
2024-03-03T21:29:04.026Z,67.00
2024-03-03T21:31:35.625Z,66.80
2024-03-03T21:37:05.918Z,65.72
2024-03-03T21:39:35.696Z,60.55
2024-03-03T21:42:28.434Z,63.30
2024-03-03T21:45:10.751Z,67.07
2024-03-03T21:47:59.478Z,73.03
2024-03-03T21:50:46.677Z,66.60
2024-03-03T21:53:33.184Z,68.38
2024-03-03T21:56:24.676Z,67.88
2024-03-03T21:59:02.089Z,68.95
2024-03-03T22:01:33.686Z,65.13
2024-03-03T22:04:07.898Z,68.68
2024-03-03T22:06:49.044Z,71.32
2024-03-03T22:09:57.941Z,68.10
2024-03-03T22:12:45.499Z,68.53
2024-03-03T22:15:42.459Z,63.80
2024-03-03T22:18:33.134Z,69.68
2024-03-03T22:21:06.994Z,64.20
2024-03-03T22:24:08.318Z,66.88
2024-03-03T22:27:25.216Z,64.22
2024-03-03T22:44:31.359Z,64.38
2024-03-03T22:57:41.093Z,71.28
2024-03-03T23:00:20.585Z,59.50
2024-03-03T23:02:51.164Z,61.90
2024-03-03T23:05:19.166Z,62.38
2024-03-03T23:07:51.548Z,64.10
2024-03-03T23:10:19.634Z,65.15
2024-03-03T23:12:53.529Z,63.80
2024-03-03T23:15:23.819Z,61.75
2024-03-03T23:18:07.312Z,71.78
2024-03-03T23:20:44.753Z,63.25
2024-03-03T23:23:27.776Z,59.60
2024-03-03T23:25:59.106Z,64.55
2024-03-03T23:28:27.281Z,67.97
2024-03-03T23:31:00.336Z,66.03
2024-03-03T23:33:55.611Z,64.32
2024-03-03T23:36:29.281Z,64.57
2024-03-03T23:39:08.571Z,65.10
2024-03-03T23:41:43.336Z,62.65
2024-03-03T23:44:22.657Z,66.07
2024-03-03T23:46:51.824Z,68.05
2024-03-03T23:49:32.126Z,64.88
2024-03-03T23:52:29.547Z,64.05
2024-03-03T23:59:13.081Z,63.47
